sensor_id;sensor_type;location;lat;lon;timestamp;pressure;altitude;pressure_sealevel;temperature;humidity
6833;BME280;3454;42.654;23.378;2023-11-22T00:00:50;63854.03;;;8.72;100.00
6833;BME280;3454;42.654;23.378;2023-11-22T00:03:15;63840.59;;;8.62;100.00
6833;BME280;3454;42.654;23.378;2023-11-22T00:05:41;63862.78;;;8.80;100.00
6833;BME280;3454;42.654;23.378;2023-11-22T00:08:07;63855.13;;;8.73;100.00
6833;BME280;3454;42.654;23.378;2023-11-22T00:10:32;63831.31;;;8.53;100.00
6833;BME280;3454;42.654;23.378;2023-11-22T00:12:58;63828.06;;;8.50;100.00
6833;BME280;3454;42.654;23.378;2023-11-22T00:15:24;63806.22;;;8.30;100.00
6833;BME280;3454;42.654;23.378;2023-11-22T00:17:49;63814.41;;;8.37;100.00
6833;BME280;3454;42.654;23.378;2023-11-22T00:20:15;63831.31;;;8.53;100.00
6833;BME280;3454;42.654;23.378;2023-11-22T00:22:43;63848.78;;;8.69;100.00
6833;BME280;3454;42.654;23.378;2023-11-22T00:25:10;63852.94;;;8.71;100.00
6833;BME280;3454;42.654;23.378;2023-11-22T00:27:38;63860.59;;;8.78;100.00
6833;BME280;3454;42.654;23.378;2023-11-22T00:30:04;63892.50;;;9.09;100.00
6833;BME280;3454;42.654;23.378;2023-11-22T00:32:30;63874.78;;;8.91;100.00
6833;BME280;3454;42.654;23.378;2023-11-22T00:34:55;63881.34;;;8.97;100.00
6833;BME280;3454;42.654;23.378;2023-11-22T00:37:21;63905.41;;;9.19;100.00
6833;BME280;3454;42.654;23.378;2023-11-22T00:39:46;63873.94;;;8.92;100.00
6833;BME280;3454;42.654;23.378;2023-11-22T00:42:12;63856.97;;;8.77;100.00
6833;BME280;3454;42.654;23.378;2023-11-22T00:44:37;63829.13;;;8.51;100.00
6833;BME280;3454;42.654;23.378;2023-11-22T00:47:03;63793.28;;;8.20;100.00
6833;BME280;3454;42.654;23.378;2023-11-22T00:49:29;63797.78;;;8.20;100.00
6833;BME280;3454;42.654;23.378;2023-11-22T00:51:54;63805.88;;;8.32;100.00
6833;BME280;3454;42.654;23.378;2023-11-22T00:54:20;63802.69;;;8.24;100.00
6833;BME280;3454;42.654;23.378;2023-11-22T00:56:46;63784.13;;;8.07;100.00
6833;BME280;3454;42.654;23.378;2023-11-22T00:59:12;63801.03;;;8.23;100.00
6833;BME280;3454;42.654;23.378;2023-11-22T01:01:38;63763.81;;;7.93;100.00
6833;BME280;3454;42.654;23.378;2023-11-22T01:04:03;63791.97;;;8.17;100.00
6833;BME280;3454;42.654;23.378;2023-11-22T01:06:30;63811.75;;;8.30;100.00
6833;BME280;3454;42.654;23.378;2023-11-22T01:08:57;63779.22;;;8.03;100.00
6833;BME280;3454;42.654;23.378;2023-11-22T01:11:23;63814.94;;;8.38;100.00
6833;BME280;3454;42.654;23.378;2023-11-22T01:13:49;63784.88;;;8.10;100.00
6833;BME280;3454;42.654;23.378;2023-11-22T01:16:15;63793.09;;;8.18;100.00
6833;BME280;3454;42.654;23.378;2023-11-22T01:18:42;63816.34;;;8.37;100.00
6833;BME280;3454;42.654;23.378;2023-11-22T01:21:08;63807.19;;;8.35;100.00
6833;BME280;3454;42.654;23.378;2023-11-22T01:23:33;63831.31;;;8.53;100.00
6833;BME280;3454;42.654;23.378;2023-11-22T01:26:00;63822.03;;;8.44;100.00
6833;BME280;3454;42.654;23.378;2023-11-22T01:28:28;63819.84;;;8.42;100.00
6833;BME280;3454;42.654;23.378;2023-11-22T01:30:54;63814.06;;;8.39;100.00
6833;BME280;3454;42.654;23.378;2023-11-22T01:33:21;63828.59;;;8.51;100.00
6833;BME280;3454;42.654;23.378;2023-11-22T01:35:46;63827.16;;;8.52;100.00
6833;BME280;3454;42.654;23.378;2023-11-22T01:38:12;63839.06;;;8.56;100.00
6833;BME280;3454;42.654;23.378;2023-11-22T01:40:46;63847.72;;;8.68;100.00
6833;BME280;3454;42.654;23.378;2023-11-22T01:43:19;63861.91;;;8.81;100.00
6833;BME280;3454;42.654;23.378;2023-11-22T01:45:45;63876.44;;;8.92;100.00
6833;BME280;3454;42.654;23.378;2023-11-22T01:48:11;63882.44;;;8.98;100.00
6833;BME280;3454;42.654;23.378;2023-11-22T01:50:38;63895.47;;;9.14;100.00
6833;BME280;3454;42.654;23.378;2023-11-22T01:53:05;63888.44;;;9.03;100.00
6833;BME280;3454;42.654;23.378;2023-11-22T01:55:31;63886.81;;;9.02;100.00
6833;BME280;3454;42.654;23.378;2023-11-22T01:57:57;63892.28;;;9.07;100.00
6833;BME280;3454;42.654;23.378;2023-11-22T02:00:24;63903.75;;;9.17;100.00
6833;BME280;3454;42.654;23.378;2023-11-22T02:02:51;63870.88;;;8.92;100.00
6833;BME280;3454;42.654;23.378;2023-11-22T02:05:17;63847.72;;;8.68;100.00
6833;BME280;3454;42.654;23.378;2023-11-22T02:07:43;63816.91;;;8.37;100.00
6833;BME280;3454;42.654;23.378;2023-11-22T02:10:08;63855.13;;;8.73;100.00
6833;BME280;3454;42.654;23.378;2023-11-22T02:12:35;63839.31;;;8.58;100.00
6833;BME280;3454;42.654;23.378;2023-11-22T02:15:01;63822.34;;;8.42;100.00
6833;BME280;3454;42.654;23.378;2023-11-22T02:17:29;63827.50;;;8.50;100.00
6833;BME280;3454;42.654;23.378;2023-11-22T02:19:54;63829.69;;;8.52;100.00
6833;BME280;3454;42.654;23.378;2023-11-22T02:22:20;63855.34;;;8.75;100.00
6833;BME280;3454;42.654;23.378;2023-11-22T02:24:45;63842.56;;;8.61;100.00
6833;BME280;3454;42.654;23.378;2023-11-22T02:27:11;63836.78;;;8.58;100.00
6833;BME280;3454;42.654;23.378;2023-11-22T02:29:36;63848.56;;;8.67;100.00
6833;BME280;3454;42.654;23.378;2023-11-22T02:32:02;63837.88;;;8.59;100.00
6833;BME280;3454;42.654;23.378;2023-11-22T02:34:27;63832.19;;;8.52;100.00
6833;BME280;3454;42.654;23.378;2023-11-22T02:36:53;63838.97;;;8.60;100.00
6833;BME280;3454;42.654;23.378;2023-11-22T02:39:18;63831.88;;;8.54;100.00
6833;BME280;3454;42.654;23.378;2023-11-22T02:41:44;63802.38;;;8.26;100.00
6833;BME280;3454;42.654;23.378;2023-11-22T02:44:10;63822.34;;;8.42;100.00
6833;BME280;3454;42.654;23.378;2023-11-22T02:46:36;63829.69;;;8.52;100.00
6833;BME280;3454;42.654;23.378;2023-11-22T02:49:02;63809.81;;;8.31;100.00
6833;BME280;3454;42.654;23.378;2023-11-22T02:51:27;63818.53;;;8.39;100.00
6833;BME280;3454;42.654;23.378;2023-11-22T02:53:53;63819.84;;;8.42;100.00
6833;BME280;3454;42.654;23.378;2023-11-22T02:56:19;63840.38;;;8.59;100.00
6833;BME280;3454;42.654;23.378;2023-11-22T02:58:44;63815.28;;;8.36;100.00
6833;BME280;3454;42.654;23.378;2023-11-22T03:01:11;63844.41;;;8.65;100.00
6833;BME280;3454;42.654;23.378;2023-11-22T03:03:36;63827.81;;;8.48;100.00
6833;BME280;3454;42.654;23.378;2023-11-22T03:06:02;63825.09;;;8.45;100.00
6833;BME280;3454;42.654;23.378;2023-11-22T03:08:28;63825.88;;;8.48;100.00
6833;BME280;3454;42.654;23.378;2023-11-22T03:10:53;63827.28;;;8.47;100.00
6833;BME280;3454;42.654;23.378;2023-11-22T03:13:19;63826.41;;;8.48;100.00
6833;BME280;3454;42.654;23.378;2023-11-22T03:15:45;63849.91;;;8.70;100.00
6833;BME280;3454;42.654;23.378;2023-11-22T03:18:10;63865.41;;;8.87;100.00
6833;BME280;3454;42.654;23.378;2023-11-22T03:20:44;63860.81;;;8.80;100.00
6833;BME280;3454;42.654;23.378;2023-11-22T03:23:10;63872.06;;;8.88;100.00
6833;BME280;3454;42.654;23.378;2023-11-22T03:25:36;63844.97;;;8.66;100.00
6833;BME280;3454;42.654;23.378;2023-11-22T03:28:01;63858.09;;;8.78;100.00
6833;BME280;3454;42.654;23.378;2023-11-22T03:30:27;63855.91;;;8.76;100.00
6833;BME280;3454;42.654;23.378;2023-11-22T03:32:52;63850.44;;;8.71;100.00
6833;BME280;3454;42.654;23.378;2023-11-22T03:35:19;63847.16;;;8.68;100.00
6833;BME280;3454;42.654;23.378;2023-11-22T03:37:45;63851.31;;;8.69;100.00
6833;BME280;3454;42.654;23.378;2023-11-22T03:40:10;63852.28;;;8.75;100.00
6833;BME280;3454;42.654;23.378;2023-11-22T03:42:37;63855.91;;;8.76;100.00
6833;BME280;3454;42.654;23.378;2023-11-22T03:45:05;63876.44;;;8.92;100.00
6833;BME280;3454;42.654;23.378;2023-11-22T03:47:30;63876.97;;;8.93;100.00
6833;BME280;3454;42.654;23.378;2023-11-22T03:49:58;63908.13;;;9.21;100.00
6833;BME280;3454;42.654;23.378;2023-11-22T03:52:25;63901.03;;;9.15;100.00
6833;BME280;3454;42.654;23.378;2023-11-22T03:54:50;63877.44;;;8.98;100.00
6833;BME280;3454;42.654;23.378;2023-11-22T03:57:16;63883.22;;;9.01;100.00
6833;BME280;3454;42.654;23.378;2023-11-22T03:59:42;63884.09;;;8.99;100.00
6833;BME280;3454;42.654;23.378;2023-11-22T04:02:08;63903.22;;;9.17;100.00
6833;BME280;3454;42.654;23.378;2023-11-22T04:04:34;63890.31;;;9.07;100.00
6833;BME280;3454;42.654;23.378;2023-11-22T04:07:00;63877.53;;;8.93;100.00
6833;BME280;3454;42.654;23.378;2023-11-22T04:09:25;63895.00;;;9.09;100.00
6833;BME280;3454;42.654;23.378;2023-11-22T04:11:51;63905.09;;;9.21;100.00
6833;BME280;3454;42.654;23.378;2023-11-22T04:14:17;63873.94;;;8.92;100.00
6833;BME280;3454;42.654;23.378;2023-11-22T04:16:45;63844.75;;;8.63;100.00
6833;BME280;3454;42.654;23.378;2023-11-22T04:19:11;63860.91;;;8.76;100.00
6833;BME280;3454;42.654;23.378;2023-11-22T04:21:36;63859.72;;;8.79;100.00
6833;BME280;3454;42.654;23.378;2023-11-22T04:24:02;63848.78;;;8.69;100.00
6833;BME280;3454;42.654;23.378;2023-11-22T04:26:27;63813.28;;;8.36;100.00
6833;BME280;3454;42.654;23.378;2023-11-22T04:28:53;63787.38;;;8.10;100.00
6833;BME280;3454;42.654;23.378;2023-11-22T04:31:18;63819.63;;;8.40;100.00
6833;BME280;3454;42.654;23.378;2023-11-22T04:33:44;63841.69;;;8.63;100.00
6833;BME280;3454;42.654;23.378;2023-11-22T04:36:09;63847.16;;;8.68;100.00
6833;BME280;3454;42.654;23.378;2023-11-22T04:38:35;63833.72;;;8.58;100.00
6833;BME280;3454;42.654;23.378;2023-11-22T04:41:00;63852.63;;;8.73;100.00
6833;BME280;3454;42.654;23.378;2023-11-22T04:43:26;63840.94;;;8.60;100.00
6833;BME280;3454;42.654;23.378;2023-11-22T04:45:52;63856.97;;;8.77;100.00
6833;BME280;3454;42.654;23.378;2023-11-22T04:48:17;63864.97;;;8.82;100.00
6833;BME280;3454;42.654;23.378;2023-11-22T04:50:43;63876.13;;;8.94;100.00
6833;BME280;3454;42.654;23.378;2023-11-22T04:53:10;63882.13;;;9.00;100.00
6833;BME280;3454;42.654;23.378;2023-11-22T04:55:35;63894.47;;;9.09;100.00
6833;BME280;3454;42.654;23.378;2023-11-22T04:58:01;63868.22;;;8.85;100.00
6833;BME280;3454;42.654;23.378;2023-11-22T05:00:27;63871.53;;;8.88;100.00
6833;BME280;3454;42.654;23.378;2023-11-22T05:02:52;63857.53;;;8.77;100.00
6833;BME280;3454;42.654;23.378;2023-11-22T05:05:19;63836.78;;;8.58;100.00
6833;BME280;3454;42.654;23.378;2023-11-22T05:07:45;63837.00;;;8.61;100.00
6833;BME280;3454;42.654;23.378;2023-11-22T05:10:10;63831.53;;;8.56;100.00
6833;BME280;3454;42.654;23.378;2023-11-22T05:12:36;63838.41;;;8.60;100.00
6833;BME280;3454;42.654;23.378;2023-11-22T05:15:02;63818.22;;;8.41;100.00
6833;BME280;3454;42.654;23.378;2023-11-22T05:17:28;63844.19;;;8.63;100.00
6833;BME280;3454;42.654;23.378;2023-11-22T05:19:54;63852.94;;;8.71;100.00
6833;BME280;3454;42.654;23.378;2023-11-22T05:22:19;63872.28;;;8.91;100.00
6833;BME280;3454;42.654;23.378;2023-11-22T05:24:45;63858.84;;;8.81;100.00
6833;BME280;3454;42.654;23.378;2023-11-22T05:27:10;63867.72;;;8.84;100.00
6833;BME280;3454;42.654;23.378;2023-11-22T05:29:36;63837.13;;;8.56;100.00
6833;BME280;3454;42.654;23.378;2023-11-22T05:32:02;63840.84;;;8.64;100.00
6833;BME280;3454;42.654;23.378;2023-11-22T05:34:28;63859.16;;;8.79;100.00
6833;BME280;3454;42.654;23.378;2023-11-22T05:36:55;63862.44;;;8.82;100.00
6833;BME280;3454;42.654;23.378;2023-11-22T05:39:20;63878.84;;;8.97;100.00
6833;BME280;3454;42.654;23.378;2023-11-22T05:41:48;63855.91;;;8.76;100.00
6833;BME280;3454;42.654;23.378;2023-11-22T05:44:14;63836.56;;;8.56;100.00
6833;BME280;3454;42.654;23.378;2023-11-22T05:46:39;63819.09;;;8.39;100.00
6833;BME280;3454;42.654;23.378;2023-11-22T05:49:05;63822.91;;;8.43;100.00
6833;BME280;3454;42.654;23.378;2023-11-22T05:51:30;63849.91;;;8.70;100.00
6833;BME280;3454;42.654;23.378;2023-11-22T05:53:56;63860.03;;;8.77;100.00
6833;BME280;3454;42.654;23.378;2023-11-22T05:56:22;63888.44;;;9.03;100.00
6833;BME280;3454;42.654;23.378;2023-11-22T05:58:47;63898.72;;;9.17;100.00
6833;BME280;3454;42.654;23.378;2023-11-22T06:01:13;63910.53;;;9.26;100.00
6833;BME280;3454;42.654;23.378;2023-11-22T06:03:39;63907.59;;;9.21;100.00
6833;BME280;3454;42.654;23.378;2023-11-22T06:06:05;63907.94;;;9.19;100.00
6833;BME280;3454;42.654;23.378;2023-11-22T06:08:31;63856.78;;;8.74;100.00
6833;BME280;3454;42.654;23.378;2023-11-22T06:10:57;63875.91;;;8.92;100.00
6833;BME280;3454;42.654;23.378;2023-11-22T06:13:25;63851.53;;;8.72;100.00
6833;BME280;3454;42.654;23.378;2023-11-22T06:15:51;63878.84;;;8.97;100.00
6833;BME280;3454;42.654;23.378;2023-11-22T06:18:17;63889.47;;;9.09;100.00
6833;BME280;3454;42.654;23.378;2023-11-22T06:20:45;63878.84;;;8.97;100.00
6833;BME280;3454;42.654;23.378;2023-11-22T06:23:17;63871.19;;;8.90;100.00
6833;BME280;3454;42.654;23.378;2023-11-22T06:25:43;63884.31;;;9.02;100.00
6833;BME280;3454;42.654;23.378;2023-11-22T06:28:09;63864.88;;;8.86;100.00
6833;BME280;3454;42.654;23.378;2023-11-22T06:30:35;63863.88;;;8.81;100.00
6833;BME280;3454;42.654;23.378;2023-11-22T06:33:01;63846.38;;;8.65;100.00
6833;BME280;3454;42.654;23.378;2023-11-22T06:35:27;63837.31;;;8.59;100.00
6833;BME280;3454;42.654;23.378;2023-11-22T06:37:53;63837.00;;;8.61;100.00
6833;BME280;3454;42.654;23.378;2023-11-22T06:40:18;63836.25;;;8.58;100.00
6833;BME280;3454;42.654;23.378;2023-11-22T06:42:46;63875.34;;;8.91;100.00
6833;BME280;3454;42.654;23.378;2023-11-22T06:45:12;63888.69;;;9.06;100.00
6833;BME280;3454;42.654;23.378;2023-11-22T06:47:44;63893.38;;;9.08;100.00
6833;BME280;3454;42.654;23.378;2023-11-22T06:50:10;63850.97;;;8.71;100.00
6833;BME280;3454;42.654;23.378;2023-11-22T06:52:38;63867.91;;;8.87;100.00
6833;BME280;3454;42.654;23.378;2023-11-22T06:55:04;63883.75;;;9.01;100.00
6833;BME280;3454;42.654;23.378;2023-11-22T06:57:30;63879.16;;;8.95;100.00
6833;BME280;3454;42.654;23.378;2023-11-22T06:59:56;63876.66;;;8.95;100.00
6833;BME280;3454;42.654;23.378;2023-11-22T07:02:22;63900.72;;;9.17;100.00
6833;BME280;3454;42.654;23.378;2023-11-22T07:04:48;63893.81;;;9.13;100.00
6833;BME280;3454;42.654;23.378;2023-11-22T07:07:14;63916.00;;;9.31;100.00
6833;BME280;3454;42.654;23.378;2023-11-22T07:09:43;63931.09;;;9.43;100.00
6833;BME280;3454;42.654;23.378;2023-11-22T07:12:09;63943.34;;;9.56;100.00
6833;BME280;3454;42.654;23.378;2023-11-22T07:14:35;63937.88;;;9.51;100.00
6833;BME280;3454;42.654;23.378;2023-11-22T07:17:02;63950.44;;;9.63;100.00
6833;BME280;3454;42.654;23.378;2023-11-22T07:19:28;63943.34;;;9.56;100.00
6833;BME280;3454;42.654;23.378;2023-11-22T07:21:53;63935.13;;;9.49;100.00
6833;BME280;3454;42.654;23.378;2023-11-22T07:24:19;63955.69;;;9.65;100.00
6833;BME280;3454;42.654;23.378;2023-11-22T07:26:45;63916.34;;;9.29;100.00
6833;BME280;3454;42.654;23.378;2023-11-22T07:29:10;63913.06;;;9.26;100.00
6833;BME280;3454;42.654;23.378;2023-11-22T07:31:38;63924.75;;;9.39;100.00
6833;BME280;3454;42.654;23.378;2023-11-22T07:34:04;63943.66;;;9.54;100.00
6833;BME280;3454;42.654;23.378;2023-11-22T07:36:31;63936.22;;;9.50;100.00
6833;BME280;3454;42.654;23.378;2023-11-22T07:38:57;63936.78;;;9.50;100.00
6833;BME280;3454;42.654;23.378;2023-11-22T07:41:25;63944.44;;;9.57;100.00
6833;BME280;3454;42.654;23.378;2023-11-22T07:43:51;63931.66;;;9.43;100.00
6833;BME280;3454;42.654;23.378;2023-11-22T07:46:17;63938.97;;;9.52;100.00
6833;BME280;3454;42.654;23.378;2023-11-22T07:48:44;63941.47;;;9.52;100.00
6833;BME280;3454;42.654;23.378;2023-11-22T07:51:13;63912.16;;;9.27;100.00
6833;BME280;3454;42.654;23.378;2023-11-22T07:53:42;63895.56;;;9.10;100.00
6833;BME280;3454;42.654;23.378;2023-11-22T07:56:09;63911.66;;;9.27;100.00
6833;BME280;3454;42.654;23.378;2023-11-22T07:58:35;63942.03;;;9.53;100.00
6833;BME280;3454;42.654;23.378;2023-11-22T08:01:02;63905.09;;;9.21;100.00
6833;BME280;3454;42.654;23.378;2023-11-22T08:03:31;63918.19;;;9.33;100.00
6833;BME280;3454;42.654;23.378;2023-11-22T08:05:56;63927.28;;;9.39;100.00
6833;BME280;3454;42.654;23.378;2023-11-22T08:08:22;63929.47;;;9.41;100.00
6833;BME280;3454;42.654;23.378;2023-11-22T08:10:49;63951.00;;;9.63;100.00
6833;BME280;3454;42.654;23.378;2023-11-22T08:13:17;63979.53;;;9.85;100.00
6833;BME280;3454;42.654;23.378;2023-11-22T08:15:45;63993.09;;;10.02;100.00
6833;BME280;3454;42.654;23.378;2023-11-22T08:18:12;64008.44;;;10.16;100.00
6833;BME280;3454;42.654;23.378;2023-11-22T08:20:38;64019.69;;;10.24;100.00
6833;BME280;3454;42.654;23.378;2023-11-22T08:23:04;64026.81;;;10.31;100.00
6833;BME280;3454;42.654;23.378;2023-11-22T08:25:32;64010.41;;;10.16;100.00
6833;BME280;3454;42.654;23.378;2023-11-22T08:27:57;63993.09;;;10.02;100.00
6833;BME280;3454;42.654;23.378;2023-11-22T08:30:23;63991.22;;;9.98;100.00
6833;BME280;3454;42.654;23.378;2023-11-22T08:32:48;64012.59;;;10.18;100.00
6833;BME280;3454;42.654;23.378;2023-11-22T08:35:19;64000.22;;;10.08;100.00
6833;BME280;3454;42.654;23.378;2023-11-22T08:37:47;64042.34;;;10.47;100.00
6833;BME280;3454;42.654;23.378;2023-11-22T08:40:13;64042.91;;;10.48;100.00
6833;BME280;3454;42.654;23.378;2023-11-22T08:42:45;64030.88;;;10.37;100.00
6833;BME280;3454;42.654;23.378;2023-11-22T08:45:11;63996.94;;;10.05;100.00
6833;BME280;3454;42.654;23.378;2023-11-22T08:47:40;63983.81;;;9.93;100.00
6833;BME280;3454;42.654;23.378;2023-11-22T08:50:09;64004.38;;;10.10;100.00
6833;BME280;3454;42.654;23.378;2023-11-22T08:52:40;64023.53;;;10.28;100.00
6833;BME280;3454;42.654;23.378;2023-11-22T08:55:08;64039.09;;;10.44;100.00
6833;BME280;3454;42.654;23.378;2023-11-22T08:57:37;64048.94;;;10.53;100.00
6833;BME280;3454;42.654;23.378;2023-11-22T09:00:04;64059.88;;;10.63;100.00
6833;BME280;3454;42.654;23.378;2023-11-22T09:02:36;64081.53;;;10.81;100.00
6833;BME280;3454;42.654;23.378;2023-11-22T09:05:03;64084.28;;;10.83;100.00
6833;BME280;3454;42.654;23.378;2023-11-22T09:07:32;64094.56;;;10.97;100.00
6833;BME280;3454;42.654;23.378;2023-11-22T09:09:58;64104.53;;;11.02;100.00
6833;BME280;3454;42.654;23.378;2023-11-22T09:12:25;64076.63;;;10.76;100.00
6833;BME280;3454;42.654;23.378;2023-11-22T09:14:52;64089.63;;;10.93;100.00
6833;BME280;3454;42.654;23.378;2023-11-22T09:17:18;64090.53;;;10.91;100.00
6833;BME280;3454;42.654;23.378;2023-11-22T09:19:46;64112.97;;;11.12;100.00
6833;BME280;3454;42.654;23.378;2023-11-22T09:22:13;64099.06;;;10.97;100.00
6833;BME280;3454;42.654;23.378;2023-11-22T09:24:38;64075.19;;;10.77;100.00
6833;BME280;3454;42.654;23.378;2023-11-22T09:27:04;64018.50;;;10.28;100.00
6833;BME280;3454;42.654;23.378;2023-11-22T09:29:31;64007.66;;;10.13;100.00
6833;BME280;3454;42.654;23.378;2023-11-22T09:31:59;64040.72;;;10.46;100.00
6833;BME280;3454;42.654;23.378;2023-11-22T09:34:26;64035.25;;;10.41;100.00
6833;BME280;3454;42.654;23.378;2023-11-22T09:36:51;64042.13;;;10.45;100.00
6833;BME280;3454;42.654;23.378;2023-11-22T09:39:17;64000.75;;;10.09;100.00
6833;BME280;3454;42.654;23.378;2023-11-22T09:41:46;64012.81;;;10.20;100.00
6833;BME280;3454;42.654;23.378;2023-11-22T09:44:12;64036.69;;;10.40;100.00
6833;BME280;3454;42.654;23.378;2023-11-22T09:46:38;64048.59;;;10.55;100.00
6833;BME280;3454;42.654;23.378;2023-11-22T09:49:08;64017.41;;;10.27;100.00
6833;BME280;3454;42.654;23.378;2023-11-22T09:51:36;64022.66;;;10.29;100.00
6833;BME280;3454;42.654;23.378;2023-11-22T09:54:06;64050.34;;;10.52;100.00
6833;BME280;3454;42.654;23.378;2023-11-22T09:56:35;64072.47;;;10.75;100.00
6833;BME280;3454;42.654;23.378;2023-11-22T09:59:03;64088.88;;;10.90;100.00
6833;BME280;3454;42.654;23.378;2023-11-22T10:01:30;64107.28;;;11.05;100.00
6833;BME280;3454;42.654;23.378;2023-11-22T10:04:04;64113.31;;;11.10;100.00
6833;BME280;3454;42.654;23.378;2023-11-22T10:06:33;64106.41;;;11.06;100.00
6833;BME280;3454;42.654;23.378;2023-11-22T10:09:04;64119.22;;;11.20;100.00
6833;BME280;3454;42.654;23.378;2023-11-22T10:11:35;64062.38;;;10.63;100.00
6833;BME280;3454;42.654;23.378;2023-11-22T10:14:03;64073.88;;;10.74;100.00
6833;BME280;3454;42.654;23.378;2023-11-22T10:16:30;64076.50;;;10.81;100.00
6833;BME280;3454;42.654;23.378;2023-11-22T10:18:57;64089.44;;;10.90;100.00
6833;BME280;3454;42.654;23.378;2023-11-22T10:21:29;64104.44;;;11.07;100.00
6833;BME280;3454;42.654;23.378;2023-11-22T10:24:00;64100.91;;;11.01;100.00
6833;BME280;3454;42.654;23.378;2023-11-22T10:26:27;64106.97;;;11.07;100.00
6833;BME280;3454;42.654;23.378;2023-11-22T10:28:54;64106.41;;;11.06;100.00
6833;BME280;3454;42.654;23.378;2023-11-22T10:31:22;64124.25;;;11.20;100.00
6833;BME280;3454;42.654;23.378;2023-11-22T10:33:48;64101.13;;;11.04;100.00
6833;BME280;3454;42.654;23.378;2023-11-22T10:36:15;64111.34;;;11.11;100.00
6833;BME280;3454;42.654;23.378;2023-11-22T10:38:46;64150.22;;;11.46;100.00
6833;BME280;3454;42.654;23.378;2023-11-22T10:41:12;64156.00;;;11.49;100.00
6833;BME280;3454;42.654;23.378;2023-11-22T10:43:39;64245.59;;;12.34;100.00
6833;BME280;3454;42.654;23.378;2023-11-22T10:46:05;64331.19;;;13.12;100.00
6833;BME280;3454;42.654;23.378;2023-11-22T10:48:32;64329.88;;;13.09;100.00
6833;BME280;3454;42.654;23.378;2023-11-22T10:51:00;64244.50;;;12.33;100.00
6833;BME280;3454;42.654;23.378;2023-11-22T10:53:32;64192.44;;;11.85;100.00
6833;BME280;3454;42.654;23.378;2023-11-22T10:58:57;64154.94;;;11.48;100.00
6833;BME280;3454;42.654;23.378;2023-11-22T11:01:26;64165.22;;;11.62;100.00
6833;BME280;3454;42.654;23.378;2023-11-22T11:04:11;64160.41;;;11.53;100.00
6833;BME280;3454;42.654;23.378;2023-11-22T11:06:44;64121.19;;;11.20;100.00
6833;BME280;3454;42.654;23.378;2023-11-22T11:09:13;64064.25;;;10.67;100.00
6833;BME280;3454;42.654;23.378;2023-11-22T11:11:40;64075.53;;;10.75;100.00
6833;BME280;3454;42.654;23.378;2023-11-22T11:14:08;64096.34;;;10.94;100.00
6833;BME280;3454;42.654;23.378;2023-11-22T11:16:38;64082.31;;;10.84;100.00
6833;BME280;3454;42.654;23.378;2023-11-22T11:19:07;64044.22;;;10.51;100.00
6833;BME280;3454;42.654;23.378;2023-11-22T11:21:35;64041.81;;;10.47;100.00
6833;BME280;3454;42.654;23.378;2023-11-22T11:24:00;64053.63;;;10.55;100.00
6833;BME280;3454;42.654;23.378;2023-11-22T11:26:32;64068.28;;;10.73;100.00
6833;BME280;3454;42.654;23.378;2023-11-22T11:29:00;64081.75;;;10.83;100.00
6833;BME280;3454;42.654;23.378;2023-11-22T11:31:33;64088.00;;;10.91;100.00
6833;BME280;3454;42.654;23.378;2023-11-22T11:34:05;64065.88;;;10.69;100.00
6833;BME280;3454;42.654;23.378;2023-11-22T11:36:32;64040.16;;;10.45;100.00
6833;BME280;3454;42.654;23.378;2023-11-22T11:39:05;64040.72;;;10.46;100.00
6833;BME280;3454;42.654;23.378;2023-11-22T11:41:34;64046.50;;;10.49;100.00
6833;BME280;3454;42.654;23.378;2023-11-22T11:44:03;64054.75;;;10.56;100.00
6833;BME280;3454;42.654;23.378;2023-11-22T11:46:30;64075.75;;;10.78;100.00
6833;BME280;3454;42.654;23.378;2023-11-22T11:48:56;64055.81;;;10.57;100.00
6833;BME280;3454;42.654;23.378;2023-11-22T11:51:26;64056.25;;;10.62;100.00
6833;BME280;3454;42.654;23.378;2023-11-22T11:53:53;64039.94;;;10.43;100.00
6833;BME280;3454;42.654;23.378;2023-11-22T11:56:19;64059.88;;;10.63;100.00
6833;BME280;3454;42.654;23.378;2023-11-22T11:58:46;64038.53;;;10.44;100.00
6833;BME280;3454;42.654;23.378;2023-11-22T12:01:13;64052.00;;;10.54;100.00
6833;BME280;3454;42.654;23.378;2023-11-22T12:03:41;64056.25;;;10.62;100.00
6833;BME280;3454;42.654;23.378;2023-11-22T12:06:07;64079.03;;;10.81;100.00
6833;BME280;3454;42.654;23.378;2023-11-22T12:08:33;64087.03;;;10.86;100.00
6833;BME280;3454;42.654;23.378;2023-11-22T12:11:05;64073.56;;;10.76;100.00
6833;BME280;3454;42.654;23.378;2023-11-22T12:13:33;64093.59;;;10.92;100.00
6833;BME280;3454;42.654;23.378;2023-11-22T12:16:01;64086.69;;;10.88;100.00
6833;BME280;3454;42.654;23.378;2023-11-22T12:18:29;64105.63;;;11.03;100.00
6833;BME280;3454;42.654;23.378;2023-11-22T12:20:58;64114.38;;;11.11;100.00
6833;BME280;3454;42.654;23.378;2023-11-22T12:23:24;64105.53;;;11.08;100.00
6833;BME280;3454;42.654;23.378;2023-11-22T12:25:55;64142.53;;;11.39;100.00
6833;BME280;3454;42.654;23.378;2023-11-22T12:28:29;64138.16;;;11.35;100.00
6833;BME280;3454;42.654;23.378;2023-11-22T12:30:55;64141.13;;;11.40;100.00
6833;BME280;3454;42.654;23.378;2023-11-22T12:33:20;64166.44;;;11.59;100.00
6833;BME280;3454;42.654;23.378;2023-11-22T12:35:47;64189.69;;;11.82;100.00
6833;BME280;3454;42.654;23.378;2023-11-22T12:38:14;64172.16;;;11.66;100.00
6833;BME280;3454;42.654;23.378;2023-11-22T12:40:46;64168.31;;;11.63;100.00
6833;BME280;3454;42.654;23.378;2023-11-22T12:43:13;64158.97;;;11.54;100.00
6833;BME280;3454;42.654;23.378;2023-11-22T12:45:41;64114.06;;;11.13;100.00
6833;BME280;3454;42.654;23.378;2023-11-22T12:50:49;64149.44;;;11.43;100.00
6833;BME280;3454;42.654;23.378;2023-11-22T12:53:15;64134.00;;;11.34;100.00
6833;BME280;3454;42.654;23.378;2023-11-22T12:55:44;64127.75;;;11.26;100.00
6833;BME280;3454;42.654;23.378;2023-11-22T12:58:11;64117.03;;;11.18;100.00
6833;BME280;3454;42.654;23.378;2023-11-22T13:00:40;64117.34;;;11.16;100.00
6833;BME280;3454;42.654;23.378;2023-11-22T13:03:09;64129.63;;;11.30;100.00
6833;BME280;3454;42.654;23.378;2023-11-22T13:05:36;64145.84;;;11.42;100.00
6833;BME280;3454;42.654;23.378;2023-11-22T13:08:03;64154.03;;;11.50;100.00
6833;BME280;3454;42.654;23.378;2023-11-22T13:10:29;64134.31;;;11.32;100.00